createdAt,value
2017-12-24T00:00:33.626Z,1021.24
2017-12-24T00:02:27.199Z,1021.24
2017-12-24T00:03:27.245Z,1021.26
2017-12-24T00:05:19.804Z,1021.29
2017-12-24T00:06:20.774Z,1021.29
2017-12-24T00:08:11.420Z,1021.18
2017-12-24T00:09:15.626Z,1021.19
2017-12-24T00:11:06.897Z,1021.23
2017-12-24T00:12:07.844Z,1021.18
2017-12-24T00:14:00.290Z,1021.22
2017-12-24T00:15:01.397Z,1021.19
2017-12-24T00:16:54.046Z,1021.12
2017-12-24T00:17:54.983Z,1021.13
2017-12-24T00:19:47.511Z,1021.16
2017-12-24T00:20:48.556Z,1021.13
2017-12-24T00:22:42.113Z,1021.08
2017-12-24T00:23:42.122Z,1021.04
2017-12-24T00:25:34.770Z,1020.97
2017-12-24T00:26:35.681Z,1020.99
2017-12-24T00:28:27.367Z,1020.91
2017-12-24T00:29:29.193Z,1020.98
2017-12-24T00:31:23.376Z,1020.95
2017-12-24T00:32:22.770Z,1020.99
2017-12-24T00:34:16.356Z,1021.06
2017-12-24T00:35:16.390Z,1021.05
2017-12-24T00:37:09.000Z,1021.19
2017-12-24T00:38:09.936Z,1021.04
2017-12-24T00:40:01.274Z,1021.16
2017-12-24T00:41:03.512Z,1021.08
2017-12-24T00:42:56.099Z,1021.04
2017-12-24T00:43:56.051Z,1021.17
2017-12-24T00:45:50.616Z,1021.09
2017-12-24T00:46:50.582Z,1021.01
2017-12-24T00:48:43.210Z,1020.91
2017-12-24T00:49:44.133Z,1021.02
2017-12-24T00:51:36.809Z,1020.94
2017-12-24T00:52:37.682Z,1020.91
2017-12-24T00:54:30.371Z,1020.86
2017-12-24T00:55:31.283Z,1020.96
2017-12-24T00:57:22.554Z,1020.88
2017-12-24T00:58:24.790Z,1021.01
2017-12-24T01:00:18.472Z,1020.88
2017-12-24T01:01:18.367Z,1020.88
2017-12-24T01:03:11.079Z,1020.90
2017-12-24T01:04:11.951Z,1020.89
2017-12-24T01:06:04.470Z,1020.88
2017-12-24T01:07:05.474Z,1020.98
2017-12-24T01:08:59.615Z,1020.85
2017-12-24T01:09:59.073Z,1020.85
2017-12-24T01:11:52.630Z,1020.79
2017-12-24T01:12:52.625Z,1020.82
2017-12-24T01:14:43.886Z,1020.87
2017-12-24T01:15:46.155Z,1020.91
2017-12-24T01:17:38.794Z,1020.97
2017-12-24T01:18:39.763Z,1020.87
2017-12-24T01:20:32.416Z,1020.92
2017-12-24T01:21:33.281Z,1020.82
2017-12-24T01:23:26.729Z,1020.81
2017-12-24T01:24:26.872Z,1020.81
2017-12-24T01:26:19.568Z,1020.81
2017-12-24T01:27:20.402Z,1020.81
2017-12-24T01:29:13.877Z,1020.73
2017-12-24T01:30:13.997Z,1020.80
2017-12-24T01:32:05.231Z,1020.71
2017-12-24T01:33:07.537Z,1020.75
2017-12-24T01:35:01.086Z,1020.66
2017-12-24T01:36:01.141Z,1020.73
2017-12-24T01:37:53.768Z,1020.60
2017-12-24T01:38:54.665Z,1020.64
2017-12-24T01:40:48.243Z,1020.67
2017-12-24T01:41:48.250Z,1020.66
2017-12-24T01:43:40.916Z,1020.61
2017-12-24T01:44:41.765Z,1020.61
2017-12-24T01:46:36.256Z,1020.49
2017-12-24T01:47:35.306Z,1020.60
2017-12-24T01:49:26.384Z,1020.58
2017-12-24T01:50:27.964Z,1020.59
2017-12-24T01:52:22.494Z,1020.59
2017-12-24T01:53:22.464Z,1020.59
2017-12-24T01:55:15.098Z,1020.65
2017-12-24T01:56:15.968Z,1020.66
2017-12-24T01:58:09.581Z,1020.62
2017-12-24T01:59:09.564Z,1020.62
2017-12-24T02:01:02.240Z,1020.65
2017-12-24T02:02:03.166Z,1020.73
2017-12-24T02:03:56.670Z,1020.72
2017-12-24T02:04:56.674Z,1020.78
2017-12-24T02:06:47.453Z,1020.78
2017-12-24T02:07:50.271Z,1020.77
2017-12-24T02:09:43.695Z,1020.82
2017-12-24T02:10:42.923Z,1020.88
2017-12-24T02:12:36.471Z,1020.79
2017-12-24T02:13:37.374Z,1020.90
2017-12-24T02:15:30.066Z,1020.76
2017-12-24T02:16:30.954Z,1020.77
2017-12-24T02:18:23.606Z,1020.87
2017-12-24T02:19:24.546Z,1020.87
2017-12-24T02:21:18.043Z,1020.87
2017-12-24T02:22:18.033Z,1020.89
2017-12-24T02:24:08.773Z,1020.84
2017-12-24T02:25:11.637Z,1020.86
2017-12-24T02:27:05.744Z,1020.86
2017-12-24T02:28:05.182Z,1020.94
2017-12-24T02:29:59.330Z,1020.90
2017-12-24T02:30:58.710Z,1020.90
2017-12-24T02:32:51.182Z,1020.88
2017-12-24T02:33:51.422Z,1020.75
2017-12-24T02:35:45.837Z,1020.82
2017-12-24T02:36:44.985Z,1020.76
2017-12-24T02:38:38.513Z,1020.84
2017-12-24T02:39:39.377Z,1020.77
2017-12-24T02:41:32.272Z,1020.84
2017-12-24T02:42:32.995Z,1020.84
2017-12-24T02:44:25.630Z,1020.75
2017-12-24T02:45:26.547Z,1020.85
2017-12-24T02:47:19.150Z,1020.81
2017-12-24T02:48:20.065Z,1020.88
2017-12-24T02:50:13.624Z,1020.85
2017-12-24T02:51:13.712Z,1020.71
2017-12-24T02:53:06.336Z,1020.75
2017-12-24T02:54:05.374Z,1020.75
2017-12-24T02:56:00.688Z,1020.70
2017-12-24T02:56:59.862Z,1020.69
2017-12-24T02:58:53.426Z,1020.60
2017-12-24T02:59:54.355Z,1020.59
2017-12-24T03:01:47.959Z,1020.54
2017-12-24T03:02:47.900Z,1020.55
2017-12-24T03:04:40.544Z,1020.58
2017-12-24T03:05:41.421Z,1020.55
2017-12-24T03:07:35.060Z,1020.57
2017-12-24T03:08:35.054Z,1020.53
2017-12-24T03:10:27.715Z,1020.49
2017-12-24T03:11:26.736Z,1020.45
2017-12-24T03:13:21.258Z,1020.41
2017-12-24T03:14:22.197Z,1020.35
2017-12-24T03:16:15.691Z,1020.39
2017-12-24T03:17:15.699Z,1020.47
2017-12-24T03:19:08.380Z,1020.43
2017-12-24T03:20:09.248Z,1020.42
2017-12-24T03:38:52.766Z,1020.35
2017-12-24T03:39:55.578Z,1020.33
2017-12-24T03:41:49.140Z,1020.44
2017-12-24T03:42:49.105Z,1020.34
2017-12-24T03:44:42.597Z,1020.38
2017-12-24T03:45:42.687Z,1020.31
2017-12-24T03:47:36.234Z,1020.25
2017-12-24T03:48:36.225Z,1020.28
2017-12-24T03:50:28.850Z,1020.20
2017-12-24T03:51:29.784Z,1020.22
2017-12-24T03:53:23.313Z,1020.16
2017-12-24T03:54:23.395Z,1020.14
2017-12-24T03:56:16.009Z,1020.15
2017-12-24T03:57:16.892Z,1020.21
2017-12-24T03:59:08.275Z,1020.16
2017-12-24T04:00:08.562Z,1020.12
2017-12-24T04:02:04.647Z,1020.21
2017-12-24T04:03:04.006Z,1020.19
2017-12-24T04:04:57.645Z,1020.21
2017-12-24T04:05:57.622Z,1020.23
2017-12-24T04:07:50.222Z,1020.21
2017-12-24T04:08:51.151Z,1020.17
2017-12-24T04:10:44.755Z,1020.25
2017-12-24T04:11:44.725Z,1020.19
2017-12-24T04:13:38.880Z,1020.32
2017-12-24T04:14:38.321Z,1020.04
2017-12-24T04:16:31.854Z,1020.28
2017-12-24T04:17:29.940Z,1020.32
2017-12-24T04:19:24.504Z,1020.20
2017-12-24T04:20:25.385Z,1020.23
2017-12-24T04:22:18.801Z,1020.20
2017-12-24T04:23:18.965Z,1020.19
2017-12-24T04:25:13.117Z,1020.14
2017-12-24T04:26:12.476Z,1020.18
2017-12-24T04:28:06.689Z,1020.16
2017-12-24T04:29:06.088Z,1020.11
2017-12-24T04:31:00.215Z,1020.06
2017-12-24T04:32:00.550Z,1020.11
2017-12-24T04:33:53.159Z,1020.09
2017-12-24T04:34:51.285Z,1020.05
2017-12-24T04:36:45.846Z,1020.10
2017-12-24T04:37:46.732Z,1020.09
2017-12-24T04:39:40.156Z,1020.07
2017-12-24T04:40:40.349Z,1020.11
2017-12-24T04:42:32.957Z,1020.04
2017-12-24T04:43:33.862Z,1020.07
2017-12-24T04:45:26.533Z,1020.03
2017-12-24T04:46:27.478Z,1020.02
2017-12-24T04:48:20.959Z,1020.04
2017-12-24T04:49:20.972Z,1020.04
2017-12-24T04:51:13.645Z,1020.08
2017-12-24T04:52:13.439Z,1020.10
2017-12-24T04:54:06.968Z,1020.03
2017-12-24T04:55:08.122Z,1020.04
2017-12-24T04:57:00.824Z,1020.08
2017-12-24T04:58:01.672Z,1020.06
2017-12-24T04:59:55.804Z,1020.04
2017-12-24T05:00:55.213Z,1020.06
2017-12-24T05:02:48.804Z,1020.08
2017-12-24T05:03:49.698Z,1020.08
2017-12-24T05:05:41.442Z,1020.06
2017-12-24T05:06:42.366Z,1020.12
2017-12-24T05:08:35.940Z,1019.98
2017-12-24T05:09:34.042Z,1020.05
2017-12-24T05:11:28.585Z,1020.04
2017-12-24T05:12:29.488Z,1019.99
2017-12-24T05:14:22.885Z,1020.04
2017-12-24T05:15:23.040Z,1020.03
2017-12-24T05:17:15.694Z,1020.03
2017-12-24T05:18:16.504Z,1020.05
2017-12-24T05:20:10.201Z,1019.95
2017-12-24T05:21:10.157Z,1020.05
2017-12-24T05:23:02.775Z,1020.03
2017-12-24T05:24:03.734Z,1019.98
2017-12-24T05:25:57.300Z,1019.97
2017-12-24T05:26:56.533Z,1019.95
2017-12-24T05:28:49.924Z,1019.96
2017-12-24T05:29:50.813Z,1020.01
2017-12-24T05:31:44.385Z,1019.96
2017-12-24T05:32:43.475Z,1019.88
2017-12-24T05:34:36.995Z,1019.80
2017-12-24T05:35:37.968Z,1019.85
2017-12-24T05:37:31.368Z,1019.81
2017-12-24T05:38:31.479Z,1019.82
2017-12-24T05:40:24.969Z,1019.82
2017-12-24T05:41:25.063Z,1019.87
2017-12-24T05:43:19.170Z,1019.78
2017-12-24T05:44:15.983Z,1019.82
2017-12-24T05:46:11.296Z,1019.83
2017-12-24T05:47:13.040Z,1019.80
2017-12-24T05:49:05.800Z,1019.78
2017-12-24T06:11:20.199Z,1019.71
2017-12-24T06:12:14.385Z,1019.70
2017-12-24T06:14:06.022Z,1019.68
2017-12-24T06:15:07.993Z,1019.69
2017-12-24T06:17:01.448Z,1019.68
2017-12-24T06:18:00.729Z,1019.64
2017-12-24T06:19:54.192Z,1019.69
2017-12-24T06:20:55.210Z,1019.69
2017-12-24T06:22:47.558Z,1019.68
2017-12-24T06:23:48.665Z,1019.72
2017-12-24T06:25:41.274Z,1019.68
2017-12-24T06:26:42.229Z,1019.72
2017-12-24T06:28:36.684Z,1019.78
2017-12-24T06:29:35.778Z,1019.67
2017-12-24T06:31:28.391Z,1019.68
2017-12-24T06:32:29.350Z,1019.67
2017-12-24T06:34:22.860Z,1019.64
2017-12-24T06:35:22.918Z,1019.70
2017-12-24T06:37:15.543Z,1019.64
2017-12-24T06:38:16.470Z,1019.64
2017-12-24T06:40:09.154Z,1019.60
2017-12-24T06:41:10.051Z,1019.73
2017-12-24T06:43:04.118Z,1019.58
2017-12-24T06:44:03.579Z,1019.61
2017-12-24T07:03:06.780Z,1019.50
2017-12-24T07:03:48.538Z,1019.50
2017-12-24T07:05:42.035Z,1019.42
2017-12-24T07:06:42.079Z,1019.47
2017-12-24T07:08:36.185Z,1019.43
2017-12-24T07:09:35.630Z,1019.43
2017-12-24T07:11:29.107Z,1019.39
2017-12-24T07:12:30.061Z,1019.40
2017-12-24T07:14:21.814Z,1019.41
2017-12-24T07:15:22.741Z,1019.39
2017-12-24T07:17:14.143Z,1019.46
2017-12-24T07:18:16.305Z,1019.46
2017-12-24T07:20:08.910Z,1019.48
2017-12-24T07:21:09.862Z,1019.45
2017-12-24T07:23:03.361Z,1019.42
2017-12-24T07:24:03.323Z,1019.41
2017-12-24T07:25:56.096Z,1019.36
2017-12-24T07:26:56.981Z,1019.44
2017-12-24T07:28:49.943Z,1019.38
2017-12-24T07:29:50.906Z,1019.43
2017-12-24T07:31:43.169Z,1019.40
2017-12-24T07:32:44.114Z,1019.37
2017-12-24T07:34:37.621Z,1019.41
2017-12-24T07:35:37.671Z,1019.34
2017-12-24T07:37:30.277Z,1019.37
2017-12-24T07:38:31.257Z,1019.43
2017-12-24T07:40:24.635Z,1019.40
2017-12-24T07:41:24.650Z,1019.31
2017-12-24T07:43:20.782Z,1019.32
2017-12-24T07:44:18.297Z,1019.39
2017-12-24T07:46:11.871Z,1019.42
2017-12-24T07:47:11.857Z,1019.41
2017-12-24T07:49:04.245Z,1019.42
2017-12-24T07:50:05.413Z,1019.39
2017-12-24T07:51:58.963Z,1019.36
2017-12-24T07:52:59.007Z,1019.35
2017-12-24T07:54:51.483Z,1019.40
2017-12-24T07:55:52.571Z,1019.33
2017-12-24T07:57:45.024Z,1019.37
2017-12-24T07:58:46.092Z,1019.30
2017-12-24T08:00:38.758Z,1019.26
2017-12-24T08:01:39.691Z,1019.22
2017-12-24T08:03:32.318Z,1019.23
2017-12-24T08:04:33.221Z,1019.21
2017-12-24T08:06:25.906Z,1019.25
2017-12-24T08:07:26.816Z,1019.24
2017-12-24T08:09:20.327Z,1019.18
2017-12-24T08:10:20.377Z,1019.20
2017-12-24T08:12:12.989Z,1019.23
2017-12-24T08:13:13.921Z,1019.26
2017-12-24T08:15:07.440Z,1019.27
2017-12-24T08:16:07.437Z,1019.24
2017-12-24T08:18:00.900Z,1019.17
2017-12-24T08:19:00.993Z,1019.20
2017-12-24T08:20:54.625Z,1019.12
2017-12-24T08:21:54.556Z,1019.13
2017-12-24T08:23:48.693Z,1019.09
2017-12-24T08:24:48.128Z,1019.16
2017-12-24T08:26:41.679Z,1019.15
2017-12-24T08:27:42.579Z,1019.09
2017-12-24T08:29:33.007Z,1019.13
2017-12-24T08:30:35.245Z,1019.05
2017-12-24T08:32:28.850Z,1019.13
2017-12-24T08:33:28.841Z,1019.12
2017-12-24T08:35:21.296Z,1019.08
2017-12-24T08:36:22.393Z,1019.07
2017-12-24T08:38:15.996Z,1019.10
2017-12-24T08:39:15.953Z,1019.06
2017-12-24T08:41:10.050Z,1019.02
2017-12-24T08:42:09.627Z,1019.09
2017-12-24T08:44:01.982Z,1019.11
2017-12-24T08:45:03.021Z,1019.02
2017-12-24T08:46:55.607Z,1019.05
2017-12-24T08:47:56.622Z,1019.12
2017-12-24T08:49:50.087Z,1019.09
2017-12-24T08:50:50.151Z,1019.10
2017-12-24T08:52:43.747Z,1019.11
2017-12-24T08:53:43.705Z,1019.07
2017-12-24T08:55:36.389Z,1019.09
2017-12-24T08:56:37.319Z,1019.05
2017-12-24T08:58:30.770Z,1019.11
2017-12-24T08:59:30.822Z,1019.06
2017-12-24T09:01:24.976Z,1019.04
2017-12-24T09:02:24.449Z,1019.06
2017-12-24T09:04:15.084Z,1019.02
2017-12-24T09:05:17.940Z,1019.04
2017-12-24T09:07:10.571Z,1019.11
2017-12-24T09:08:11.517Z,1019.03
2017-12-24T09:10:05.061Z,1019.05
2017-12-24T09:11:05.123Z,1019.07
2017-12-24T09:12:57.768Z,1019.04
2017-12-24T09:13:58.618Z,1019.05
2017-12-24T09:15:52.337Z,1019.12
2017-12-24T09:16:52.196Z,1019.07
2017-12-24T09:18:46.335Z,1019.12
2017-12-24T09:19:45.740Z,1019.09
2017-12-24T09:21:37.165Z,1019.16
2017-12-24T09:22:39.317Z,1019.09
2017-12-24T09:24:31.995Z,1018.87
2017-12-24T09:25:32.866Z,1019.02
2017-12-24T09:27:26.422Z,1018.94
2017-12-24T09:28:26.466Z,1019.01
2017-12-24T09:30:19.099Z,1018.99
2017-12-24T09:31:19.974Z,1018.92
2017-12-24T09:33:12.644Z,1018.89
2017-12-24T09:34:11.670Z,1018.96
2017-12-24T09:36:07.017Z,1018.82
2017-12-24T09:37:07.159Z,1018.86
2017-12-24T09:38:57.882Z,1018.82
2017-12-24T09:40:00.708Z,1018.92
2017-12-24T09:41:54.255Z,1018.84
2017-12-24T09:42:54.251Z,1018.83
2017-12-24T09:44:46.937Z,1018.87
2017-12-24T09:45:47.777Z,1018.81
2017-12-24T09:47:41.193Z,1018.85
2017-12-24T09:48:41.350Z,1018.83
2017-12-24T09:50:34.011Z,1018.81
2017-12-24T09:51:33.083Z,1018.83
2017-12-24T09:53:27.598Z,1018.83
2017-12-24T09:54:28.495Z,1018.84
2017-12-24T09:56:22.015Z,1018.75
2017-12-24T09:57:22.057Z,1018.75
2017-12-24T09:59:14.693Z,1018.76
2017-12-24T10:00:15.620Z,1018.75
2017-12-24T10:02:09.179Z,1018.80
2017-12-24T10:03:09.180Z,1018.72
2017-12-24T10:05:01.836Z,1018.78
2017-12-24T10:06:02.709Z,1018.71
2017-12-24T10:07:56.265Z,1018.65
2017-12-24T10:08:53.610Z,1018.63
2017-12-24T10:10:50.447Z,1018.65
2017-12-24T10:11:49.846Z,1018.64
2017-12-24T10:13:43.385Z,1018.68
2017-12-24T10:14:43.391Z,1018.66
2017-12-24T10:16:37.573Z,1018.65
2017-12-24T10:17:36.996Z,1018.72
2017-12-24T10:19:30.525Z,1018.64
2017-12-24T10:20:30.495Z,1018.75
2017-12-24T10:22:23.139Z,1018.64
2017-12-24T10:23:24.110Z,1018.64
2017-12-24T10:25:17.633Z,1018.63
2017-12-24T10:26:14.995Z,1018.71
2017-12-24T10:28:10.289Z,1018.62
2017-12-24T10:29:11.212Z,1018.61
2017-12-24T10:31:03.841Z,1018.59
2017-12-24T10:32:04.738Z,1018.60
2017-12-24T10:33:58.316Z,1018.62
2017-12-24T10:34:58.308Z,1018.57
2017-12-24T10:36:50.988Z,1018.55
2017-12-24T10:37:51.887Z,1018.67
2017-12-24T10:39:45.458Z,1018.59
2017-12-24T10:40:45.481Z,1018.46
2017-12-24T10:42:37.929Z,1018.42
2017-12-24T10:43:38.982Z,1018.47
2017-12-24T10:45:32.541Z,1018.32
2017-12-24T10:46:32.584Z,1018.36
2017-12-24T10:48:26.686Z,1018.45
2017-12-24T10:49:26.120Z,1018.38
2017-12-24T10:51:19.661Z,1018.30
2017-12-24T10:52:19.748Z,1018.33
2017-12-24T10:54:12.278Z,1018.24
2017-12-24T10:55:13.259Z,1018.22
2017-12-24T10:57:04.863Z,1018.28
2017-12-24T11:01:13.787Z,1018.34
2017-12-24T11:01:52.246Z,1018.21
2017-12-24T11:03:42.878Z,1018.22
2017-12-24T11:04:45.697Z,1018.20
2017-12-24T11:06:38.205Z,1018.23
2017-12-24T11:07:39.264Z,1018.18
2017-12-24T11:09:32.889Z,1018.15
2017-12-24T11:10:32.868Z,1018.16
2017-12-24T11:12:26.995Z,1018.13
2017-12-24T11:13:26.461Z,1018.16
2017-12-24T11:15:19.958Z,1018.04
2017-12-24T11:16:19.703Z,1018.09
2017-12-24T11:18:14.089Z,1018.07
2017-12-24T11:19:11.811Z,1018.08
2017-12-24T11:21:07.683Z,1018.10
2017-12-24T11:22:07.071Z,1018.01
2017-12-24T11:23:57.734Z,1018.07
2017-12-24T11:25:00.663Z,1018.09
2017-12-24T11:26:53.272Z,1018.10
2017-12-24T11:27:54.226Z,1018.09
2017-12-24T11:29:47.808Z,1018.04
2017-12-24T11:30:47.809Z,1018.07
2017-12-24T11:32:40.428Z,1018.00
2017-12-24T11:33:38.638Z,1018.02
2017-12-24T11:35:32.014Z,1017.92
2017-12-24T11:36:34.898Z,1017.89
2017-12-24T11:38:27.554Z,1017.86
2017-12-24T11:39:28.438Z,1017.93
2017-12-24T11:41:21.076Z,1017.90
2017-12-24T11:42:22.004Z,1017.87
2017-12-24T11:44:13.380Z,1017.83
2017-12-24T11:45:15.618Z,1017.85
2017-12-24T11:47:08.278Z,1017.75
2017-12-24T11:48:09.143Z,1017.57
2017-12-24T11:50:02.523Z,1017.65
2017-12-24T11:51:00.013Z,1017.71
2017-12-24T11:52:58.827Z,1017.59
2017-12-24T11:53:56.261Z,1017.59
2017-12-24T11:55:49.801Z,1017.71
2017-12-24T11:56:49.832Z,1017.60
2017-12-24T11:58:42.533Z,1017.56
2017-12-24T11:59:43.336Z,1017.50
2017-12-24T12:01:36.960Z,1017.59
2017-12-24T12:02:36.952Z,1017.51
2017-12-24T12:04:29.638Z,1017.46
2017-12-24T12:05:31.409Z,1017.51
2017-12-24T12:07:24.058Z,1017.48
2017-12-24T12:08:21.438Z,1017.59
2017-12-24T12:10:16.845Z,1017.56
2017-12-24T12:11:17.612Z,1017.48
2017-12-24T12:13:11.147Z,1017.43
2017-12-24T12:14:11.183Z,1017.46
2017-12-24T12:16:02.672Z,1017.38
2017-12-24T12:17:04.737Z,1017.36
2017-12-24T12:18:57.382Z,1017.36
2017-12-24T12:19:58.310Z,1017.36
2017-12-24T12:21:51.822Z,1017.25
2017-12-24T12:22:51.819Z,1017.32
2017-12-24T12:24:46.034Z,1017.27
2017-12-24T12:25:42.727Z,1017.29
2017-12-24T12:27:38.972Z,1017.28
2017-12-24T12:28:38.944Z,1017.26
2017-12-24T12:30:33.118Z,1017.28
2017-12-24T12:31:32.520Z,1017.22
2017-12-24T12:33:26.119Z,1017.25
2017-12-24T12:34:26.065Z,1017.26
2017-12-24T12:36:18.738Z,1017.20
2017-12-24T12:37:19.656Z,1017.17
2017-12-24T12:39:13.188Z,1017.17
2017-12-24T12:40:13.189Z,1017.20
2017-12-24T12:42:07.460Z,1017.21
2017-12-24T12:43:06.403Z,1017.12
2017-12-24T12:45:00.250Z,1017.21
2017-12-24T12:46:00.476Z,1016.98
2017-12-24T12:47:52.995Z,1017.05
2017-12-24T12:48:53.875Z,1016.99
2017-12-24T12:50:47.436Z,1017.14
2017-12-24T12:51:47.420Z,1017.10
2017-12-24T12:53:41.840Z,1017.09
2017-12-24T12:54:39.228Z,1017.00
2017-12-24T12:56:33.459Z,1016.94
2017-12-24T12:57:34.568Z,1016.99
2017-12-24T12:59:28.077Z,1016.92
2017-12-24T13:00:28.099Z,1016.94
2017-12-24T13:02:20.627Z,1016.93
2017-12-24T13:03:21.644Z,1017.01
2017-12-24T13:05:15.064Z,1016.93
2017-12-24T13:06:15.215Z,1016.90
2017-12-24T13:08:07.927Z,1016.89
2017-12-24T13:09:08.835Z,1016.92
2017-12-24T13:11:02.378Z,1016.94
2017-12-24T13:12:02.328Z,1016.92
2017-12-24T13:13:55.319Z,1016.89
2017-12-24T13:14:55.896Z,1016.90
2017-12-24T13:16:49.389Z,1016.92
2017-12-24T13:17:49.459Z,1016.94
2017-12-24T13:19:42.130Z,1016.88
2017-12-24T13:20:43.050Z,1016.90
2017-12-24T13:22:36.619Z,1016.82
2017-12-24T13:23:36.600Z,1016.85
2017-12-24T13:25:30.776Z,1016.82
2017-12-24T13:26:30.608Z,1016.86
2017-12-24T13:28:22.717Z,1016.75
2017-12-24T13:29:23.768Z,1016.90
2017-12-24T13:31:17.276Z,1016.78
2017-12-24T13:32:17.385Z,1016.78
2017-12-24T13:34:10.734Z,1016.82
2017-12-24T13:35:10.850Z,1016.80
2017-12-24T13:37:04.427Z,1016.77
2017-12-24T13:38:04.426Z,1016.82
2017-12-24T13:39:57.036Z,1016.79
2017-12-24T13:40:57.926Z,1016.74
2017-12-24T13:42:51.549Z,1016.77
2017-12-24T13:43:51.501Z,1016.80
2017-12-24T13:45:44.174Z,1016.75
2017-12-24T13:46:45.076Z,1016.77
2017-12-24T13:48:38.674Z,1016.75
2017-12-24T13:49:38.680Z,1016.78
2017-12-24T13:51:31.293Z,1016.72
2017-12-24T13:52:32.236Z,1016.70
2017-12-24T13:54:23.922Z,1016.68
2017-12-24T13:55:25.794Z,1016.79
2017-12-24T13:57:18.701Z,1016.71
2017-12-24T13:58:19.282Z,1016.67
2017-12-24T14:00:10.722Z,1016.68
2017-12-24T14:01:12.841Z,1016.58
2017-12-24T14:03:05.523Z,1016.58
2017-12-24T14:04:06.419Z,1016.61
2017-12-24T14:05:59.086Z,1016.62
2017-12-24T14:06:59.971Z,1016.59
2017-12-24T14:08:52.971Z,1016.59
2017-12-24T14:09:53.588Z,1016.60
2017-12-24T14:11:47.147Z,1016.57
2017-12-24T14:12:47.079Z,1016.53
2017-12-24T14:14:39.613Z,1016.58
2017-12-24T14:15:40.646Z,1016.57
2017-12-24T14:17:32.023Z,1016.56
2017-12-24T14:18:34.248Z,1016.55
2017-12-24T14:20:26.811Z,1016.52
2017-12-24T14:21:27.765Z,1016.47
2017-12-24T14:23:21.280Z,1016.49
2017-12-24T14:24:21.355Z,1016.55
2017-12-24T14:26:15.487Z,1016.51
2017-12-24T14:27:14.979Z,1016.47
2017-12-24T14:29:08.483Z,1016.50
2017-12-24T14:30:08.475Z,1016.52
2017-12-24T14:32:01.165Z,1016.48
2017-12-24T14:33:02.169Z,1016.42
2017-12-24T14:34:53.479Z,1016.44
2017-12-24T14:35:55.600Z,1016.40
2017-12-24T14:56:11.408Z,1016.30
2017-12-24T14:57:12.533Z,1016.39
2017-12-24T14:59:05.903Z,1016.33
2017-12-24T15:00:06.013Z,1016.37
2017-12-24T15:01:58.662Z,1016.38
2017-12-24T15:02:59.615Z,1016.31
2017-12-24T15:04:52.289Z,1016.39
2017-12-24T15:05:53.213Z,1016.40
2017-12-24T15:07:46.714Z,1016.41
2017-12-24T15:08:44.038Z,1016.36
2017-12-24T15:10:39.383Z,1016.40
2017-12-24T15:11:40.266Z,1016.46
2017-12-24T15:13:32.911Z,1016.49
2017-12-24T15:14:33.842Z,1016.47
2017-12-24T15:16:26.525Z,1016.40
2017-12-24T15:17:27.377Z,1016.45
2017-12-24T15:37:43.704Z,1016.51
2017-12-24T15:38:45.604Z,1016.23
2017-12-24T15:55:58.877Z,1016.29
2017-12-24T15:56:59.955Z,1016.31
2017-12-24T15:58:51.324Z,1016.31
2017-12-24T15:59:53.520Z,1016.33
2017-12-24T16:01:46.243Z,1016.23
2017-12-24T16:02:47.074Z,1016.26
2017-12-24T16:04:40.651Z,1016.23
2017-12-24T16:05:40.666Z,1016.29
2017-12-24T16:07:33.270Z,1016.23
2017-12-24T16:08:34.278Z,1016.29
2017-12-24T16:10:27.799Z,1016.25
2017-12-24T16:11:27.118Z,1016.22
2017-12-24T16:13:20.426Z,1016.23
2017-12-24T16:14:21.387Z,1016.18
2017-12-24T16:16:14.904Z,1016.15
2017-12-24T16:17:14.869Z,1016.13
2017-12-24T16:19:09.011Z,1016.15
2017-12-24T16:20:08.418Z,1016.14
2017-12-24T16:22:02.078Z,1016.11
2017-12-24T16:23:01.984Z,1016.11
2017-12-24T16:24:54.681Z,1016.12
2017-12-24T16:25:55.552Z,1016.13
2017-12-24T16:27:49.099Z,1016.12
2017-12-24T16:28:49.151Z,1016.09
2017-12-24T16:30:41.718Z,1016.06
2017-12-24T16:31:42.702Z,1016.00
2017-12-24T16:33:36.243Z,1016.04
2017-12-24T16:35:48.722Z,1016.03
2017-12-24T16:36:49.660Z,1016.02
2017-12-24T16:38:43.223Z,1016.03
2017-12-24T16:39:43.132Z,1016.00
2017-12-24T16:41:35.804Z,1016.02
2017-12-24T16:42:36.743Z,1016.05
2017-12-24T16:44:30.344Z,1016.02
2017-12-24T16:45:30.394Z,1016.03
2017-12-24T16:47:23.008Z,1015.99
2017-12-24T16:48:21.901Z,1016.00
2017-12-24T16:50:17.563Z,1016.07
2017-12-24T16:51:17.465Z,1016.03
2017-12-24T16:53:10.108Z,1016.07
2017-12-24T16:54:11.019Z,1016.09
2017-12-24T16:56:03.533Z,1016.09
2017-12-24T16:57:04.591Z,1016.11
2017-12-24T16:58:58.688Z,1016.10
2017-12-24T16:59:58.164Z,1016.11
2017-12-24T17:01:51.658Z,1016.06
2017-12-24T17:02:51.706Z,1016.08
2017-12-24T17:04:44.179Z,1016.14
2017-12-24T17:05:45.294Z,1016.12
2017-12-24T17:07:38.835Z,1016.12
2017-12-24T17:08:38.801Z,1016.04
2017-12-24T17:10:31.411Z,1016.01
2017-12-24T17:11:32.394Z,1016.12
2017-12-24T17:13:25.905Z,1016.08
2017-12-24T17:14:25.970Z,1016.08
2017-12-24T17:16:18.562Z,1016.09
2017-12-24T17:17:19.503Z,1016.05
2017-12-24T17:19:12.158Z,1016.06
2017-12-24T17:20:13.045Z,1015.93
2017-12-24T17:22:06.627Z,1016.11
2017-12-24T17:23:06.636Z,1016.08
2017-12-24T17:24:59.398Z,1016.10
2017-12-24T17:26:00.151Z,1016.05
2017-12-24T17:27:53.742Z,1016.12
2017-12-24T17:28:53.878Z,1016.10
2017-12-24T17:30:46.447Z,1016.14
2017-12-24T17:31:47.269Z,1016.09
2017-12-24T17:33:43.191Z,1016.12
2017-12-24T17:34:40.862Z,1016.18
2017-12-24T17:36:33.482Z,1016.20
2017-12-24T17:37:34.471Z,1016.22
2017-12-24T17:39:27.340Z,1016.22
2017-12-24T17:40:28.037Z,1016.19
2017-12-24T17:42:20.766Z,1016.21
2017-12-24T17:43:21.553Z,1016.16
2017-12-24T17:45:15.110Z,1016.20
2017-12-24T17:46:15.087Z,1016.20
2017-12-24T17:48:07.772Z,1016.12
2017-12-24T17:50:22.040Z,1016.18
2017-12-24T17:51:22.307Z,1016.14
2017-12-24T17:53:16.332Z,1016.10
2017-12-24T17:54:15.596Z,1016.22
2017-12-24T17:56:12.261Z,1016.13
2017-12-24T17:57:09.223Z,1016.14
2017-12-24T17:59:03.318Z,1016.14
2017-12-24T18:00:02.736Z,1016.16
2017-12-24T18:01:55.511Z,1016.14
2017-12-24T18:02:56.340Z,1016.16
2017-12-24T18:04:49.835Z,1016.11
2017-12-24T18:05:49.073Z,1016.11
2017-12-24T18:07:42.531Z,1016.07
2017-12-24T18:08:43.434Z,1016.07
2017-12-24T18:10:36.970Z,1016.06
2017-12-24T18:11:37.007Z,1016.06
2017-12-24T18:13:30.701Z,1016.09
2017-12-24T18:15:43.401Z,1016.02
2017-12-24T18:16:43.931Z,1016.03
2017-12-24T18:18:39.701Z,1016.03
2017-12-24T18:19:37.720Z,1016.02
2017-12-24T18:21:31.647Z,1015.99
2017-12-24T18:23:43.447Z,1015.95
2017-12-24T18:24:44.595Z,1015.97
2017-12-24T18:26:38.031Z,1015.94
2017-12-24T18:27:35.344Z,1015.93
2017-12-24T18:29:30.673Z,1015.91
2017-12-24T18:30:31.579Z,1015.94
2017-12-24T18:32:22.274Z,1015.94
2017-12-24T18:33:25.134Z,1015.93
2017-12-24T18:35:17.714Z,1015.88
2017-12-24T18:36:18.688Z,1015.94
2017-12-24T18:38:11.422Z,1015.90
2017-12-24T18:39:12.244Z,1015.85
2017-12-24T18:41:05.863Z,1015.93
2017-12-24T18:42:05.842Z,1015.86
2017-12-24T18:43:58.406Z,1015.93
2017-12-24T18:44:59.389Z,1015.85
2017-12-24T18:46:52.935Z,1015.86
2017-12-24T18:47:53.015Z,1015.88
2017-12-24T18:49:45.583Z,1015.86
2017-12-24T18:50:46.507Z,1015.85
2017-12-24T18:52:39.817Z,1015.86
2017-12-24T18:53:40.065Z,1015.80
2017-12-24T18:55:34.292Z,1015.85
2017-12-24T18:56:33.650Z,1015.84
2017-12-24T18:58:27.229Z,1015.92
2017-12-24T18:59:27.174Z,1015.82
2017-12-24T19:01:19.994Z,1015.90
2017-12-24T19:02:20.739Z,1015.89
2017-12-24T19:04:11.446Z,1015.87
2017-12-24T19:05:14.349Z,1015.87
2017-12-24T19:07:05.919Z,1015.84
2017-12-24T19:09:21.201Z,1015.78
2017-12-24T19:10:21.302Z,1015.77
2017-12-24T19:12:14.025Z,1015.71
2017-12-24T19:13:14.871Z,1015.75
2017-12-24T19:15:08.497Z,1015.72
2017-12-24T19:16:08.379Z,1015.66
2017-12-24T19:18:01.046Z,1015.73
2017-12-24T19:19:02.012Z,1015.74
2017-12-24T19:20:54.825Z,1015.59
2017-12-24T19:21:55.529Z,1015.65